Time;durP1;ratioP1;P1;durP2;ratioP2;P2;SDS_P1;SDS_P2;PMS_P1;PMS_P2;Temp;Humidity;BMP_temperature;BMP_pressure;BME280_temperature;BME280_humidity;BME280_pressure;Samples;Min_cycle;Max_cycle;Signal;HPM_P1;HPM_P2
2024/01/26 00:01:00;;;;;;;;;;;;;;;7.03;50.43;99164.66;5053908;28;19916;-77
2024/01/26 00:03:25;;;;;;;;;;;;;;;6.95;50.68;99169.41;5073170;28;19919;-78
2024/01/26 00:05:51;;;;;;;;;;;;;;;6.95;50.35;99161.16;5072227;28;20391;-78
2024/01/26 00:08:16;;;;;;;;;;;;;;;7.04;50.03;99166.22;5035202;28;19916;-78
2024/01/26 00:10:41;;;;;;;;;;;;;;;7.07;50.44;99162.66;5035469;28;19916;-78
2024/01/26 00:13:07;;;;;;;;;;;;;;;7.16;50.35;99163.03;5059946;28;19916;-78
2024/01/26 00:15:32;;;;;;;;;;;;;;;7.05;50.23;99167.03;5054989;28;20437;-78
2024/01/26 00:17:59;;;;;;;;;;;;;;;6.98;50.81;99162.34;5047285;28;19913;-78
2024/01/26 00:20:24;;;;;;;;;;;;;;;6.85;51.81;99169.47;5066313;28;20019;-78
2024/01/26 00:22:50;;;;;;;;;;;;;;;6.93;51.00;99169.03;5042100;28;19988;-77
2024/01/26 00:25:15;;;;;;;;;;;;;;;6.85;51.33;99164.75;5054933;28;19912;-79
2024/01/26 00:27:40;;;;;;;;;;;;;;;6.78;51.19;99169.50;5059078;28;19908;-78
2024/01/26 00:30:06;;;;;;;;;;;;;;;6.82;51.00;99170.25;5073007;28;19942;-79
2024/01/26 00:32:31;;;;;;;;;;;;;;;6.77;51.43;99178.91;5054734;28;19909;-79
2024/01/26 00:34:57;;;;;;;;;;;;;;;6.74;51.99;99185.22;5041277;28;19909;-79
2024/01/26 00:37:22;;;;;;;;;;;;;;;6.70;51.53;99178.94;5054410;28;19915;-78
2024/01/26 00:39:47;;;;;;;;;;;;;;;6.75;51.71;99181.28;5058966;28;19962;-77
2024/01/26 00:42:13;;;;;;;;;;;;;;;6.75;51.70;99181.28;5034550;28;19985;-78
2024/01/26 00:44:38;;;;;;;;;;;;;;;6.89;50.90;99179.25;5065634;28;20368;-78
2024/01/26 00:47:04;;;;;;;;;;;;;;;6.89;51.65;99175.72;5054100;28;19924;-79
2024/01/26 00:49:29;;;;;;;;;;;;;;;6.88;52.12;99179.66;5054408;28;20007;-78
2024/01/26 00:51:55;;;;;;;;;;;;;;;6.69;52.03;99171.91;5048308;28;19919;-79
2024/01/26 00:54:21;;;;;;;;;;;;;;;6.59;52.18;99173.50;5052427;28;19912;-77
2024/01/26 00:56:46;;;;;;;;;;;;;;;6.63;51.56;99173.50;5047359;28;19966;-79
2024/01/26 00:59:11;;;;;;;;;;;;;;;6.71;52.07;99169.53;5052220;28;19916;-78
2024/01/26 01:01:37;;;;;;;;;;;;;;;6.76;51.15;99166.34;5052725;28;19986;-78
2024/01/26 01:04:02;;;;;;;;;;;;;;;6.89;50.71;99164.72;5054212;28;19908;-78
2024/01/26 01:06:27;;;;;;;;;;;;;;;6.94;50.97;99173.34;5054041;28;20296;-76
2024/01/26 01:08:53;;;;;;;;;;;;;;;6.91;50.79;99171.41;5071967;28;19997;-78
2024/01/26 01:11:18;;;;;;;;;;;;;;;6.92;51.58;99178.47;5071517;28;19912;-80
2024/01/26 01:13:43;;;;;;;;;;;;;;;6.87;51.31;99176.13;5059903;28;20411;-80
2024/01/26 01:16:12;;;;;;;;;;;;;;;6.91;51.71;99174.16;5052192;28;19913;-78
2024/01/26 01:18:37;;;;;;;;;;;;;;;6.93;51.59;99171.00;5033969;28;19920;-77
2024/01/26 01:21:04;;;;;;;;;;;;;;;6.85;52.33;99174.97;5033657;28;20395;-78
2024/01/26 01:23:30;;;;;;;;;;;;;;;6.82;51.80;99176.53;5046170;28;19999;-77
2024/01/26 01:25:55;;;;;;;;;;;;;;;6.79;51.49;99171.06;5071628;28;20021;-78
2024/01/26 01:28:20;;;;;;;;;;;;;;;6.81;52.17;99169.47;5059926;28;19943;-78
2024/01/26 01:30:46;;;;;;;;;;;;;;;6.78;51.31;99167.53;5051801;28;19913;-77
2024/01/26 01:33:11;;;;;;;;;;;;;;;6.77;52.56;99152.25;5033972;28;19916;-77
2024/01/26 01:35:36;;;;;;;;;;;;;;;6.71;52.56;99153.06;5051686;28;19909;-78
2024/01/26 01:38:01;;;;;;;;;;;;;;;6.70;51.88;99149.53;5063508;28;19908;-77
2024/01/26 01:40:27;;;;;;;;;;;;;;;6.76;52.07;99145.19;5047996;28;19920;-79
2024/01/26 01:42:52;;;;;;;;;;;;;;;6.94;50.85;99156.84;5034394;28;19916;-77
2024/01/26 01:45:17;;;;;;;;;;;;;;;7.00;51.07;99156.44;5051805;28;19958;-77
2024/01/26 01:47:43;;;;;;;;;;;;;;;6.94;51.54;99147.81;5051742;28;20377;-78
2024/01/26 01:50:08;;;;;;;;;;;;;;;6.95;50.80;99152.94;5065350;28;19909;-77
2024/01/26 01:52:35;;;;;;;;;;;;;;;6.93;51.36;99149.03;5046342;28;19919;-76
2024/01/26 01:55:01;;;;;;;;;;;;;;;6.97;51.75;99152.53;5043709;28;19912;-78
2024/01/26 01:57:26;;;;;;;;;;;;;;;7.02;50.47;99151.31;5059599;28;19926;-76
2024/01/26 01:59:52;;;;;;;;;;;;;;;7.05;51.06;99156.03;5053920;28;20313;-78
2024/01/26 02:02:19;;;;;;;;;;;;;;;7.09;50.51;99162.28;5062307;28;19913;-78
2024/01/26 02:04:44;;;;;;;;;;;;;;;7.09;50.94;99165.81;5070879;28;19916;-78
2024/01/26 02:07:10;;;;;;;;;;;;;;;7.08;51.82;99177.97;5059796;28;19914;-78
2024/01/26 02:09:35;;;;;;;;;;;;;;;7.00;51.73;99162.72;5033278;28;19919;-78
2024/01/26 02:12:01;;;;;;;;;;;;;;;7.03;50.98;99158.38;5051126;28;19909;-78
2024/01/26 02:14:26;;;;;;;;;;;;;;;6.98;51.25;99173.34;5033229;28;19916;-78
2024/01/26 02:16:52;;;;;;;;;;;;;;;7.02;50.70;99168.59;5062161;28;19965;-78
2024/01/26 02:19:17;;;;;;;;;;;;;;;6.96;50.37;99167.44;5039548;28;19921;-78
2024/01/26 02:21:43;;;;;;;;;;;;;;;7.10;50.36;99174.84;5042022;28;20007;-78
2024/01/26 02:24:08;;;;;;;;;;;;;;;7.11;50.63;99176.41;5050449;28;19923;-78
2024/01/26 02:26:33;;;;;;;;;;;;;;;7.12;50.63;99178.72;5060515;28;20372;-78
2024/01/26 02:28:58;;;;;;;;;;;;;;;7.12;50.00;99178.72;5046564;28;19915;-78
2024/01/26 02:31:24;;;;;;;;;;;;;;;7.14;48.84;99175.59;5050839;28;19912;-78
2024/01/26 02:33:49;;;;;;;;;;;;;;;7.24;49.20;99178.25;5050036;28;19991;-78
2024/01/26 02:36:14;;;;;;;;;;;;;;;7.22;49.04;99169.66;5053039;28;20402;-78
2024/01/26 02:38:40;;;;;;;;;;;;;;;7.27;48.53;99163.72;5052434;28;19908;-78
2024/01/26 02:41:05;;;;;;;;;;;;;;;7.47;48.21;99180.50;5071231;28;19908;-78
2024/01/26 02:43:30;;;;;;;;;;;;;;;7.46;47.79;99178.13;5056695;28;20370;-78
2024/01/26 02:45:55;;;;;;;;;;;;;;;7.45;48.15;99179.31;5074531;28;19931;-78
2024/01/26 02:48:23;;;;;;;;;;;;;;;7.41;47.92;99173.84;5074493;28;19908;-78
2024/01/26 02:50:48;;;;;;;;;;;;;;;7.29;49.00;99175.09;5046811;28;20377;-78
2024/01/26 02:53:14;;;;;;;;;;;;;;;7.23;49.14;99167.69;5049804;28;19912;-78
2024/01/26 02:55:39;;;;;;;;;;;;;;;7.27;48.13;99177.47;5036548;28;19966;-78
2024/01/26 02:58:04;;;;;;;;;;;;;;;7.19;49.08;99173.19;5053305;28;19908;-78
2024/01/26 03:00:30;;;;;;;;;;;;;;;7.29;47.66;99172.34;5056225;28;20308;-80
2024/01/26 03:02:55;;;;;;;;;;;;;;;7.29;49.21;99177.84;5052847;28;19912;-78
2024/01/26 03:05:20;;;;;;;;;;;;;;;7.19;48.83;99166.91;5064222;28;19966;-79
2024/01/26 03:07:46;;;;;;;;;;;;;;;7.21;48.92;99170.84;5060543;28;19908;-77
2024/01/26 03:10:11;;;;;;;;;;;;;;;7.13;48.97;99163.81;5046295;28;20106;-78
2024/01/26 03:12:36;;;;;;;;;;;;;;;7.12;48.63;99162.25;5039730;28;19912;-78
2024/01/26 03:15:02;;;;;;;;;;;;;;;7.05;48.96;99165.06;5055984;28;19912;-78
2024/01/26 03:17:27;;;;;;;;;;;;;;;6.93;49.77;99165.53;5055493;28;19916;-79
2024/01/26 03:19:52;;;;;;;;;;;;;;;6.89;49.34;99159.25;5055551;28;19925;-78
2024/01/26 03:22:18;;;;;;;;;;;;;;;6.92;48.64;99156.50;5073777;28;20474;-79
2024/01/26 03:24:43;;;;;;;;;;;;;;;6.88;49.39;99157.66;5074083;28;19922;-78
2024/01/26 03:27:09;;;;;;;;;;;;;;;6.73;49.32;99145.22;5059662;28;19912;-78
2024/01/26 03:29:34;;;;;;;;;;;;;;;6.78;48.58;99158.50;5073700;28;20285;-79
2024/01/26 03:31:59;;;;;;;;;;;;;;;6.68;49.86;99153.88;5070615;28;19952;-78
2024/01/26 03:34:25;;;;;;;;;;;;;;;6.58;49.29;99160.16;5053897;28;20003;-78
2024/01/26 03:36:50;;;;;;;;;;;;;;;6.54;48.63;99150.00;5048805;28;19920;-78
2024/01/26 03:39:15;;;;;;;;;;;;;;;6.61;48.82;99170.38;5045251;28;19948;-78
2024/01/26 03:41:41;;;;;;;;;;;;;;;6.67;48.10;99157.78;5055387;28;19962;-78
2024/01/26 03:44:07;;;;;;;;;;;;;;;6.64;49.03;99156.59;5073736;28;19962;-79
2024/01/26 03:46:32;;;;;;;;;;;;;;;6.57;48.80;99164.88;5073535;28;20757;-78
2024/01/26 03:48:57;;;;;;;;;;;;;;;6.48;48.85;99159.81;5055656;28;19912;-78
2024/01/26 03:51:23;;;;;;;;;;;;;;;6.42;49.43;99155.91;5058129;28;20003;-78
2024/01/26 03:53:48;;;;;;;;;;;;;;;6.46;48.52;99153.94;5052340;28;19960;-78
2024/01/26 03:56:13;;;;;;;;;;;;;;;6.31;49.98;99160.66;5055550;28;20331;-78
2024/01/26 03:58:39;;;;;;;;;;;;;;;6.31;49.33;99146.16;5065243;28;19958;-80
2024/01/26 04:01:04;;;;;;;;;;;;;;;6.31;49.18;99159.88;5053310;28;19919;-78
2024/01/26 04:03:30;;;;;;;;;;;;;;;6.31;50.16;99157.91;5043936;28;19913;-78
2024/01/26 04:05:55;;;;;;;;;;;;;;;6.43;49.50;99151.22;5055229;28;20353;-78
2024/01/26 04:08:20;;;;;;;;;;;;;;;6.51;49.08;99155.47;5073471;28;20418;-78
2024/01/26 04:10:46;;;;;;;;;;;;;;;6.44;49.06;99159.06;5054991;28;20378;-78
2024/01/26 04:13:11;;;;;;;;;;;;;;;6.44;48.67;99147.28;5065183;28;19935;-77
2024/01/26 04:15:37;;;;;;;;;;;;;;;6.50;49.02;99153.94;5050000;28;19920;-78
2024/01/26 04:18:02;;;;;;;;;;;;;;;6.50;49.07;99162.97;5073126;28;19958;-77
2024/01/26 04:20:27;;;;;;;;;;;;;;;6.45;48.50;99166.09;5071669;28;19997;-80
2024/01/26 04:22:53;;;;;;;;;;;;;;;6.62;47.77;99160.94;5052940;28;19939;-77
2024/01/26 04:25:18;;;;;;;;;;;;;;;6.72;48.48;99165.59;5053306;28;19909;-78
2024/01/26 04:27:43;;;;;;;;;;;;;;;6.64;48.06;99164.84;5035254;28;20011;-78
2024/01/26 04:30:09;;;;;;;;;;;;;;;6.66;48.28;99167.97;5054696;28;20022;-79
2024/01/26 04:32:36;;;;;;;;;;;;;;;6.64;48.59;99172.28;5064540;28;19916;-78
2024/01/26 04:35:01;;;;;;;;;;;;;;;6.73;47.86;99176.19;5036233;28;20387;-77
2024/01/26 04:37:26;;;;;;;;;;;;;;;6.64;48.29;99177.78;5064712;28;19912;-76
2024/01/26 04:39:52;;;;;;;;;;;;;;;6.49;47.92;99177.06;5036296;28;19951;-77
2024/01/26 04:42:17;;;;;;;;;;;;;;;6.40;48.07;99176.69;5054940;28;20364;-77
2024/01/26 04:44:42;;;;;;;;;;;;;;;6.46;48.85;99178.63;5057937;28;19908;-78
2024/01/26 04:47:07;;;;;;;;;;;;;;;6.52;47.60;99176.25;5052671;28;19931;-80
2024/01/26 04:49:33;;;;;;;;;;;;;;;6.58;47.94;99193.09;5035089;28;19923;-77
2024/01/26 04:52:01;;;;;;;;;;;;;;;6.64;47.71;99177.78;5054693;28;19913;-76
2024/01/26 04:54:26;;;;;;;;;;;;;;;6.57;47.95;99200.56;5059598;28;19912;-77
2024/01/26 04:56:51;;;;;;;;;;;;;;;6.49;48.43;99199.03;5076366;28;19915;-78
2024/01/26 04:59:17;;;;;;;;;;;;;;;6.56;48.29;99190.78;5046878;28;20472;-77
2024/01/26 05:01:42;;;;;;;;;;;;;;;6.83;47.21;99191.06;5058242;28;19918;-79
2024/01/26 05:04:07;;;;;;;;;;;;;;;6.82;47.35;99197.72;5040972;28;20004;-77
2024/01/26 05:06:33;;;;;;;;;;;;;;;6.67;47.97;99204.47;5034137;28;19913;-77
2024/01/26 05:08:58;;;;;;;;;;;;;;;6.58;48.59;99204.09;5033999;28;19955;-78
2024/01/26 05:11:24;;;;;;;;;;;;;;;6.46;48.31;99206.09;5058225;28;20327;-78
2024/01/26 05:13:49;;;;;;;;;;;;;;;6.58;48.30;99202.13;5071789;28;19951;-77
2024/01/26 05:16:14;;;;;;;;;;;;;;;6.73;47.37;99206.41;5065594;28;19964;-77
2024/01/26 05:18:40;;;;;;;;;;;;;;;6.84;47.24;99206.34;5064315;28;19924;-77
2024/01/26 05:21:05;;;;;;;;;;;;;;;6.77;47.35;99211.88;5052279;28;20007;-77
2024/01/26 05:23:30;;;;;;;;;;;;;;;6.79;47.77;99215.00;5051723;28;19919;-78
2024/01/26 05:25:56;;;;;;;;;;;;;;;6.84;47.32;99209.88;5039529;28;20475;-77
2024/01/26 05:28:21;;;;;;;;;;;;;;;6.81;47.04;99212.66;5041366;28;19908;-79
2024/01/26 05:30:47;;;;;;;;;;;;;;;6.91;46.60;99218.09;5039543;28;19955;-78
2024/01/26 05:33:12;;;;;;;;;;;;;;;6.88;47.34;99218.09;5041289;28;19991;-77
2024/01/26 05:35:38;;;;;;;;;;;;;;;6.83;47.06;99219.31;5033973;28;19909;-78
2024/01/26 05:38:03;;;;;;;;;;;;;;;6.74;47.81;99221.69;5033871;28;20396;-78
2024/01/26 05:40:29;;;;;;;;;;;;;;;6.52;48.45;99212.72;5033511;28;19920;-78
2024/01/26 05:42:54;;;;;;;;;;;;;;;6.54;47.43;99226.06;5033693;28;20388;-77
2024/01/26 05:45:19;;;;;;;;;;;;;;;6.53;47.47;99228.03;5056912;28;19916;-78
2024/01/26 05:47:47;;;;;;;;;;;;;;;6.60;47.84;99226.44;5059555;28;19923;-77
2024/01/26 05:50:14;;;;;;;;;;;;;;;6.83;46.90;99240.47;5070282;28;19908;-77
2024/01/26 05:52:40;;;;;;;;;;;;;;;6.85;46.85;99241.66;5053452;28;19971;-78
2024/01/26 05:55:06;;;;;;;;;;;;;;;6.85;46.18;99235.38;5057967;28;19909;-76
2024/01/26 05:57:31;;;;;;;;;;;;;;;6.94;46.53;99241.22;5040989;28;19913;-77
2024/01/26 05:59:56;;;;;;;;;;;;;;;6.89;46.89;99241.63;5038989;28;19916;-78
2024/01/26 06:02:22;;;;;;;;;;;;;;;6.88;46.59;99246.34;5053486;28;19920;-78
2024/01/26 06:04:47;;;;;;;;;;;;;;;6.89;46.35;99253.41;5053423;28;19939;-76
2024/01/26 06:07:12;;;;;;;;;;;;;;;6.89;46.72;99255.38;5053286;28;19984;-77
2024/01/26 06:09:39;;;;;;;;;;;;;;;6.85;46.51;99255.41;5065708;28;19912;-78
2024/01/26 06:12:05;;;;;;;;;;;;;;;6.90;45.56;99249.50;5051312;28;19966;-78
2024/01/26 06:14:30;;;;;;;;;;;;;;;6.93;46.09;99245.19;5070018;28;20436;-78
2024/01/26 06:16:55;;;;;;;;;;;;;;;6.99;45.45;99249.06;5042653;28;19921;-78
2024/01/26 06:19:21;;;;;;;;;;;;;;;6.94;45.98;99232.97;5042656;28;20399;-77
2024/01/26 06:21:46;;;;;;;;;;;;;;;6.99;44.99;99249.06;5063172;28;19946;-77
2024/01/26 06:24:11;;;;;;;;;;;;;;;7.04;45.46;99242.38;5042151;28;19916;-77
2024/01/26 06:26:37;;;;;;;;;;;;;;;7.05;45.64;99244.72;5057004;28;19913;-77
2024/01/26 06:29:03;;;;;;;;;;;;;;;7.04;45.90;99256.91;5057110;28;20039;-78
2024/01/26 06:31:28;;;;;;;;;;;;;;;7.02;45.08;99240.03;5057105;28;19912;-77
2024/01/26 06:33:54;;;;;;;;;;;;;;;7.09;45.28;99239.22;5075033;28;19919;-77
2024/01/26 06:36:19;;;;;;;;;;;;;;;7.12;45.21;99228.19;5075005;28;20291;-78
2024/01/26 06:38:44;;;;;;;;;;;;;;;7.16;46.04;99237.22;5056816;28;19927;-78
2024/01/26 06:41:10;;;;;;;;;;;;;;;7.19;45.21;99233.66;5074749;28;19923;-78
2024/01/26 06:43:35;;;;;;;;;;;;;;;7.21;45.59;99245.03;5074421;28;19916;-78
2024/01/26 06:46:00;;;;;;;;;;;;;;;7.32;45.22;99240.25;5045104;28;19912;-78
2024/01/26 06:48:26;;;;;;;;;;;;;;;7.45;44.61;99228.81;5072208;28;19915;-77
2024/01/26 06:50:54;;;;;;;;;;;;;;;7.50;44.69;99237.41;5074581;28;20011;-77
2024/01/26 06:53:19;;;;;;;;;;;;;;;7.55;45.33;99241.69;5059694;28;20370;-77
2024/01/26 06:55:45;;;;;;;;;;;;;;;7.61;44.15;99242.81;5074503;28;20019;-77
2024/01/26 06:58:10;;;;;;;;;;;;;;;7.65;44.38;99243.59;5061239;28;20380;-78
2024/01/26 07:00:35;;;;;;;;;;;;;;;7.68;44.02;99240.03;5065458;28;19963;-77
2024/01/26 07:03:01;;;;;;;;;;;;;;;7.75;44.54;99242.75;5056522;28;19919;-77
2024/01/26 07:05:26;;;;;;;;;;;;;;;7.78;43.17;99242.69;5056038;28;20380;-78
2024/01/26 07:07:52;;;;;;;;;;;;;;;7.80;44.73;99250.56;5060749;28;19908;-77
2024/01/26 07:10:18;;;;;;;;;;;;;;;7.86;43.90;99242.66;5056293;28;19915;-79
2024/01/26 07:12:43;;;;;;;;;;;;;;;7.89;43.26;99241.84;5074034;28;20370;-78
2024/01/26 07:15:09;;;;;;;;;;;;;;;7.94;43.30;99244.16;5074183;28;19916;-79
2024/01/26 07:17:35;;;;;;;;;;;;;;;7.95;42.77;99246.53;5069902;28;19924;-77
2024/01/26 07:20:00;;;;;;;;;;;;;;;8.05;43.63;99244.84;5064941;28;19935;-77
2024/01/26 07:22:25;;;;;;;;;;;;;;;8.01;43.11;99244.13;5042759;28;20007;-77
2024/01/26 07:24:51;;;;;;;;;;;;;;;8.08;44.28;99257.78;5045188;28;19962;-76
2024/01/26 07:27:16;;;;;;;;;;;;;;;8.14;43.74;99259.69;5040107;28;20307;-78
2024/01/26 07:29:41;;;;;;;;;;;;;;;8.23;43.26;99242.72;5045299;28;19912;-77
2024/01/26 07:32:07;;;;;;;;;;;;;;;8.27;43.41;99271.00;5071224;28;19920;-77
2024/01/26 07:34:32;;;;;;;;;;;;;;;8.30;43.15;99272.16;5055945;28;20251;-77
2024/01/26 07:36:57;;;;;;;;;;;;;;;8.32;44.05;99269.84;5051504;28;20384;-76
2024/01/26 07:39:23;;;;;;;;;;;;;;;8.39;44.78;99264.22;5035669;28;19931;-77
2024/01/26 07:41:48;;;;;;;;;;;;;;;8.38;43.97;99265.44;5039865;28;19916;-77
2024/01/26 07:44:13;;;;;;;;;;;;;;;8.46;44.18;99272.44;5073787;28;19946;-77
2024/01/26 07:46:41;;;;;;;;;;;;;;;8.47;43.81;99266.53;5055693;28;19962;-77
2024/01/26 07:49:06;;;;;;;;;;;;;;;8.44;43.49;99264.56;5073644;28;19948;-77
2024/01/26 07:51:32;;;;;;;;;;;;;;;8.47;44.48;99268.50;5042107;28;20379;-78
2024/01/26 07:53:57;;;;;;;;;;;;;;;8.59;42.56;99281.75;5064463;28;19924;-78
2024/01/26 07:56:22;;;;;;;;;;;;;;;8.66;42.69;99280.91;5053591;28;19970;-78
2024/01/26 07:58:47;;;;;;;;;;;;;;;8.73;43.07;99289.09;5055138;28;19916;-77
2024/01/26 08:01:13;;;;;;;;;;;;;;;8.69;42.74;99282.81;5038526;28;19912;-76
2024/01/26 08:03:39;;;;;;;;;;;;;;;8.87;44.13;99284.19;5058680;28;19915;-80
2024/01/26 08:06:04;;;;;;;;;;;;;;;8.89;42.85;99297.56;5055544;28;19912;-78
2024/01/26 08:08:29;;;;;;;;;;;;;;;8.87;43.20;99292.47;5054851;28;20055;-79
2024/01/26 08:10:57;;;;;;;;;;;;;;;8.93;43.17;99312.88;5040312;28;19956;-77
2024/01/26 08:13:22;;;;;;;;;;;;;;;9.02;43.04;99300.59;5053119;28;19912;-78
2024/01/26 08:15:47;;;;;;;;;;;;;;;9.01;43.47;99305.31;5050433;28;19909;-79
2024/01/26 08:18:13;;;;;;;;;;;;;;;8.99;43.01;99302.97;5072670;28;19923;-77
2024/01/26 08:20:40;;;;;;;;;;;;;;;9.01;42.62;99288.78;5072688;28;20357;-79
2024/01/26 08:23:05;;;;;;;;;;;;;;;9.02;42.99;99303.34;5072976;28;19917;-78
2024/01/26 08:25:31;;;;;;;;;;;;;;;9.04;42.10;99298.22;5070750;28;19931;-78
2024/01/26 08:27:57;;;;;;;;;;;;;;;9.17;42.30;99296.44;5035080;28;19931;-78
2024/01/26 08:30:23;;;;;;;;;;;;;;;9.19;43.05;99297.63;5037045;28;20290;-78
2024/01/26 08:32:49;;;;;;;;;;;;;;;9.26;42.67;99305.03;5054725;28;19919;-78
2024/01/26 08:35:14;;;;;;;;;;;;;;;9.27;42.35;99301.06;5056948;28;19912;-79
2024/01/26 08:37:39;;;;;;;;;;;;;;;9.20;41.13;99304.69;5052603;28;19909;-78
2024/01/26 08:40:06;;;;;;;;;;;;;;;9.30;41.12;99314.81;5049464;28;19955;-77
2024/01/26 08:42:32;;;;;;;;;;;;;;;9.38;42.14;99323.78;5054358;28;19919;-77
2024/01/26 08:44:57;;;;;;;;;;;;;;;9.47;43.77;99324.03;5056814;28;19983;-78
2024/01/26 08:47:23;;;;;;;;;;;;;;;9.61;42.59;99323.09;5052193;28;19917;-77
2024/01/26 08:49:48;;;;;;;;;;;;;;;9.65;42.33;99315.53;5052359;28;19917;-78
2024/01/26 08:52:13;;;;;;;;;;;;;;;9.53;41.59;99311.34;5034559;28;19982;-77
2024/01/26 08:54:39;;;;;;;;;;;;;;;9.60;42.06;99318.75;5049347;28;19908;-77
2024/01/26 08:57:04;;;;;;;;;;;;;;;9.68;42.10;99312.75;5045917;28;19912;-78
2024/01/26 08:59:30;;;;;;;;;;;;;;;9.61;41.82;99315.59;5048972;28;20007;-77
2024/01/26 09:01:55;;;;;;;;;;;;;;;9.70;41.60;99313.13;5045702;28;19913;-77
2024/01/26 09:04:20;;;;;;;;;;;;;;;9.71;40.77;99313.88;5047195;28;19909;-77
2024/01/26 09:06:46;;;;;;;;;;;;;;;9.58;41.64;99299.88;5034048;28;19908;-79
2024/01/26 09:09:12;;;;;;;;;;;;;;;9.56;41.79;99298.72;5048740;28;19908;-77
2024/01/26 09:11:37;;;;;;;;;;;;;;;9.51;41.13;99294.47;5053897;28;19908;-78
2024/01/26 09:14:02;;;;;;;;;;;;;;;9.46;41.63;99297.69;5052479;28;19935;-78
2024/01/26 09:16:27;;;;;;;;;;;;;;;9.51;42.83;99297.22;5059626;28;19912;-77
2024/01/26 09:18:53;;;;;;;;;;;;;;;9.51;41.77;99288.16;5071965;28;19916;-78
2024/01/26 09:21:18;;;;;;;;;;;;;;;9.51;41.81;99288.94;5053867;28;19959;-78
2024/01/26 09:23:43;;;;;;;;;;;;;;;9.47;41.70;99284.66;5052940;28;20412;-77
2024/01/26 09:26:09;;;;;;;;;;;;;;;9.60;42.66;99286.44;5033663;28;19915;-78
2024/01/26 09:28:34;;;;;;;;;;;;;;;9.61;42.07;99285.25;5034367;28;19916;-79
2024/01/26 09:31:00;;;;;;;;;;;;;;;9.57;41.86;99276.25;5053712;28;19913;-76
2024/01/26 09:33:25;;;;;;;;;;;;;;;9.53;41.75;99261.69;5053279;28;19948;-78
2024/01/26 09:35:50;;;;;;;;;;;;;;;9.48;41.50;99289.75;5040925;28;20003;-78
2024/01/26 09:38:18;;;;;;;;;;;;;;;9.45;42.42;99265.78;5053222;28;19923;-78
2024/01/26 09:40:43;;;;;;;;;;;;;;;9.55;43.13;99259.31;5058566;28;19912;-77
2024/01/26 09:43:09;;;;;;;;;;;;;;;9.73;41.61;99265.38;5053673;28;19970;-77
2024/01/26 09:45:35;;;;;;;;;;;;;;;9.74;42.65;99255.09;5053742;28;19912;-78
2024/01/26 09:48:04;;;;;;;;;;;;;;;9.86;42.22;99253.75;5039380;28;20381;-78
2024/01/26 09:50:30;;;;;;;;;;;;;;;9.94;40.96;99244.94;5058835;28;19947;-77
2024/01/26 09:52:57;;;;;;;;;;;;;;;9.76;41.37;99242.44;5039569;28;19967;-78
2024/01/26 09:55:22;;;;;;;;;;;;;;;9.76;41.25;99230.66;5045113;28;19965;-77
2024/01/26 09:57:49;;;;;;;;;;;;;;;9.78;42.25;99244.78;5034989;28;19913;-77
2024/01/26 10:00:14;;;;;;;;;;;;;;;9.71;42.18;99242.13;5071420;28;20304;-78
2024/01/26 10:02:43;;;;;;;;;;;;;;;9.71;41.19;99242.13;5053198;28;19908;-81
2024/01/26 10:05:08;;;;;;;;;;;;;;;9.67;41.41;99222.88;5059048;28;19967;-77
2024/01/26 10:07:34;;;;;;;;;;;;;;;9.75;42.16;99216.06;5051113;28;20001;-78
2024/01/26 10:09:59;;;;;;;;;;;;;;;9.80;41.48;99212.81;5033293;28;19920;-77
2024/01/26 10:12:25;;;;;;;;;;;;;;;9.72;41.68;99208.59;5066319;28;19912;-77
2024/01/26 10:15:00;;;;;;;;;;;;;;;9.69;42.60;99201.19;5071096;28;20490;-76
2024/01/26 10:17:25;;;;;;;;;;;;;;;9.73;41.67;99204.66;5039606;28;19920;-77
2024/01/26 10:19:51;;;;;;;;;;;;;;;9.70;41.41;99208.28;5043594;28;20416;-76
2024/01/26 10:22:16;;;;;;;;;;;;;;;9.68;40.74;99191.34;5064630;28;19950;-77
2024/01/26 10:24:41;;;;;;;;;;;;;;;9.75;41.63;99187.69;5051227;28;20007;-77
2024/01/26 10:27:07;;;;;;;;;;;;;;;9.82;41.37;99177.28;5035610;28;20281;-77
2024/01/26 10:29:34;;;;;;;;;;;;;;;9.90;41.73;99166.13;5071102;28;19912;-78
2024/01/26 10:32:00;;;;;;;;;;;;;;;9.78;40.81;99170.28;5068062;28;21285;-78
2024/01/26 10:34:26;;;;;;;;;;;;;;;9.86;41.81;99159.91;5033185;28;19917;-78
2024/01/26 10:36:53;;;;;;;;;;;;;;;9.92;40.70;99170.06;5032982;28;20020;-78
2024/01/26 10:39:18;;;;;;;;;;;;;;;9.89;41.23;99165.34;5050901;28;19912;-77
2024/01/26 10:41:47;;;;;;;;;;;;;;;9.82;41.34;99174.53;5067231;28;19985;-78
2024/01/26 10:44:14;;;;;;;;;;;;;;;9.86;41.84;99171.72;5053222;28;19916;-78
2024/01/26 10:46:40;;;;;;;;;;;;;;;9.84;41.50;99176.09;5067964;28;20027;-78
2024/01/26 10:49:06;;;;;;;;;;;;;;;9.84;39.67;99179.63;5042765;28;20490;-77
2024/01/26 10:51:34;;;;;;;;;;;;;;;9.82;40.64;99182.06;5071272;28;19939;-77
2024/01/26 10:54:00;;;;;;;;;;;;;;;9.92;40.17;99197.66;5052923;28;19942;-77
2024/01/26 10:56:25;;;;;;;;;;;;;;;9.92;39.89;99197.66;5067668;28;19912;-76
2024/01/26 10:58:51;;;;;;;;;;;;;;;9.99;40.42;99175.47;5049428;28;19962;-76
2024/01/26 11:01:16;;;;;;;;;;;;;;;10.04;40.38;99182.47;5063152;28;19916;-76
2024/01/26 11:03:43;;;;;;;;;;;;;;;10.13;40.71;99190.97;5080760;28;19908;-77
2024/01/26 11:06:09;;;;;;;;;;;;;;;10.11;40.01;99174.84;5074167;28;19917;-78
2024/01/26 11:08:35;;;;;;;;;;;;;;;10.05;39.90;99187.56;5056455;28;20346;-77
2024/01/26 11:11:00;;;;;;;;;;;;;;;10.07;40.88;99171.34;5056093;28;19969;-77
2024/01/26 11:13:26;;;;;;;;;;;;;;;10.24;41.30;99161.25;5056175;28;19923;-77
2024/01/26 11:15:51;;;;;;;;;;;;;;;10.19;41.82;99167.22;5039431;28;20404;-78
2024/01/26 11:18:26;;;;;;;;;;;;;;;10.34;40.85;99157.50;5035909;28;19952;-77
2024/01/26 11:20:51;;;;;;;;;;;;;;;10.24;40.57;99175.03;5040450;28;19920;-77
2024/01/26 11:23:17;;;;;;;;;;;;;;;10.22;40.32;99155.34;5062785;28;20357;-78
2024/01/26 11:25:43;;;;;;;;;;;;;;;10.18;40.76;99165.69;5053859;28;19951;-78
2024/01/26 11:28:09;;;;;;;;;;;;;;;10.17;39.42;99169.66;5073989;28;19915;-79
2024/01/26 11:30:35;;;;;;;;;;;;;;;10.16;39.87;99149.53;5037991;28;19969;-78
2024/01/26 11:33:00;;;;;;;;;;;;;;;10.14;39.52;99153.88;5064955;28;20003;-77
2024/01/26 11:35:26;;;;;;;;;;;;;;;10.01;39.91;99156.47;5037580;28;20007;-78
2024/01/26 11:37:53;;;;;;;;;;;;;;;10.11;39.52;99152.75;5035850;28;20054;-77
2024/01/26 11:40:23;;;;;;;;;;;;;;;10.04;39.51;99152.09;5039935;28;19912;-77
2024/01/26 11:42:48;;;;;;;;;;;;;;;10.10;40.19;99147.66;5073632;28;19912;-78
2024/01/26 11:45:24;;;;;;;;;;;;;;;10.04;39.97;99149.34;5055464;28;19923;-77
2024/01/26 11:47:50;;;;;;;;;;;;;;;10.15;39.73;99147.94;5055473;28;19916;-78
2024/01/26 11:50:15;;;;;;;;;;;;;;;10.04;39.62;99154.88;5055223;28;19908;-77
2024/01/26 11:52:40;;;;;;;;;;;;;;;10.02;40.49;99141.47;5073494;28;19915;-78
2024/01/26 11:55:06;;;;;;;;;;;;;;;10.06;38.97;99142.22;5067439;28;20446;-77
2024/01/26 11:57:32;;;;;;;;;;;;;;;10.01;39.52;99139.13;5047934;28;19908;-78
2024/01/26 12:00:01;;;;;;;;;;;;;;;10.09;39.88;99135.03;5067730;28;19912;-78
2024/01/26 12:02:27;;;;;;;;;;;;;;;10.18;40.25;99138.06;5048035;28;20387;-77
2024/01/26 12:04:52;;;;;;;;;;;;;;;9.93;40.37;99130.22;5041863;28;19965;-78
2024/01/26 12:07:17;;;;;;;;;;;;;;;9.91;41.12;99123.53;5060533;28;19939;-78
2024/01/26 12:09:43;;;;;;;;;;;;;;;9.93;41.00;99129.44;5040936;28;19931;-76
2024/01/26 12:12:10;;;;;;;;;;;;;;;10.04;40.80;99128.03;5055134;28;20376;-78
2024/01/26 12:14:35;;;;;;;;;;;;;;;9.94;41.05;99145.59;5040541;28;19917;-78
2024/01/26 12:17:01;;;;;;;;;;;;;;;10.03;40.42;99136.72;5072656;28;19916;-79
2024/01/26 12:19:27;;;;;;;;;;;;;;;10.10;40.79;99140.16;5073043;28;19913;-77
2024/01/26 12:21:52;;;;;;;;;;;;;;;10.16;39.23;99143.19;5060305;28;20292;-77
2024/01/26 12:24:17;;;;;;;;;;;;;;;10.05;40.09;99142.63;5040779;28;20403;-77
2024/01/26 12:26:43;;;;;;;;;;;;;;;9.98;39.56;99148.25;5060517;28;20300;-78
2024/01/26 12:29:09;;;;;;;;;;;;;;;10.00;39.46;99137.59;5066186;28;19966;-76
2024/01/26 12:31:34;;;;;;;;;;;;;;;10.02;40.02;99146.22;5047044;28;19912;-77
2024/01/26 12:34:01;;;;;;;;;;;;;;;10.04;39.49;99149.34;5054775;28;20029;-77
2024/01/26 12:36:31;;;;;;;;;;;;;;;10.03;39.93;99158.81;5054738;28;19913;-77
2024/01/26 12:38:57;;;;;;;;;;;;;;;10.12;39.67;99154.31;5066235;28;19987;-77
2024/01/26 12:41:22;;;;;;;;;;;;;;;10.14;39.74;99151.13;5052619;28;20054;-77
2024/01/26 12:43:48;;;;;;;;;;;;;;;10.03;39.66;99164.34;5034388;28;19924;-78
2024/01/26 12:46:13;;;;;;;;;;;;;;;10.00;40.38;99154.94;5047236;28;19913;-77